Time,TemperatureF,DewpointF,PressureIn,WindDirection,WindDirectionDegrees,WindSpeedMPH,WindSpeedGustMPH,Humidity,HourlyPrecipIn,Conditions,Clouds,dailyrainin,SoftwareType,DateUTC
2013-08-09 00:06:00,73.2,69.1,29.71,SSE,157,0.0,-999.0,87,-99.99,,,0.00,Acu-Link.com,2013-08-09 04:06:00,
2013-08-09 00:21:00,73.0,68.9,29.71,NE,45,0.0,-999.0,87,-99.99,,,0.00,Acu-Link.com,2013-08-09 04:21:00,
2013-08-09 00:36:00,72.5,68.7,29.70,SE,135,0.0,-999.0,88,-99.99,,,0.00,Acu-Link.com,2013-08-09 04:36:00,
2013-08-09 00:51:00,72.3,68.9,29.70,South,180,0.0,-999.0,89,-99.99,,,0.00,Acu-Link.com,2013-08-09 04:51:00,
2013-08-09 01:06:00,72.1,68.7,29.69,East,90,0.0,-999.0,89,-99.99,,,0.00,Acu-Link.com,2013-08-09 05:06:00,
2013-08-09 01:21:00,72.1,68.7,29.69,ESE,112,0.0,-999.0,89,-99.99,,,0.00,Acu-Link.com,2013-08-09 05:21:00,
2013-08-09 01:37:00,72.0,68.9,29.68,SSE,157,0.0,-999.0,90,-99.99,,,0.00,Acu-Link.com,2013-08-09 05:37:00,
2013-08-09 01:52:00,72.0,68.9,29.69,ESE,112,0.0,-999.0,90,-99.99,,,0.00,Acu-Link.com,2013-08-09 05:52:00,
2013-08-09 02:07:00,72.0,68.9,29.68,NE,45,0.0,-999.0,90,-99.99,,,0.00,Acu-Link.com,2013-08-09 06:07:00,
2013-08-09 02:22:00,71.8,68.7,29.68,East,90,0.0,-999.0,90,-99.99,,,0.00,Acu-Link.com,2013-08-09 06:22:00,
2013-08-09 02:37:00,71.8,68.7,29.68,ESE,112,0.0,-999.0,90,-99.99,,,0.00,Acu-Link.com,2013-08-09 06:37:00,
2013-08-09 02:52:00,71.6,68.5,29.68,East,90,0.0,-999.0,90,-99.99,,,0.00,Acu-Link.com,2013-08-09 06:52:00,
2013-08-09 03:07:00,71.4,68.3,29.68,NE,45,0.0,-999.0,90,-99.99,,,0.00,Acu-Link.com,2013-08-09 07:07:00,
2013-08-09 03:22:00,71.4,68.3,29.68,South,180,0.0,-999.0,90,-99.99,,,0.00,Acu-Link.com,2013-08-09 07:22:00,
2013-08-09 03:37:00,71.2,68.4,29.68,South,180,0.0,-999.0,91,-99.99,,,0.00,Acu-Link.com,2013-08-09 07:37:00,
2013-08-09 03:52:00,71.2,68.4,29.67,WSW,247,0.0,-999.0,91,-99.99,,,0.00,Acu-Link.com,2013-08-09 07:52:00,
2013-08-09 04:08:00,71.2,68.4,29.67,SE,135,0.0,-999.0,91,-99.99,,,0.00,Acu-Link.com,2013-08-09 08:08:00,
2013-08-09 04:23:00,71.2,68.4,29.67,ENE,67,0.0,-999.0,91,-99.99,,,0.00,Acu-Link.com,2013-08-09 08:23:00,
2013-08-09 04:39:00,71.1,68.3,29.67,NE,45,0.0,-999.0,91,-99.99,,,0.00,Acu-Link.com,2013-08-09 08:39:00,
2013-08-09 04:54:00,71.1,68.3,29.66,ESE,112,0.0,-999.0,91,-99.99,,,0.00,Acu-Link.com,2013-08-09 08:54:00,
2013-08-09 05:09:00,71.1,68.3,29.65,East,90,0.0,-999.0,91,-99.99,,,0.00,Acu-Link.com,2013-08-09 09:09:00,
2013-08-09 05:24:00,71.1,68.3,29.64,NNE,22,0.0,-999.0,91,-99.99,,,0.00,Acu-Link.com,2013-08-09 09:24:00,
2013-08-09 05:39:00,70.9,68.1,29.65,ESE,112,0.0,-999.0,91,-99.99,,,0.00,Acu-Link.com,2013-08-09 09:39:00,
2013-08-09 05:54:00,70.9,68.1,29.65,East,90,0.0,-999.0,91,-99.99,,,0.00,Acu-Link.com,2013-08-09 09:54:00,
2013-08-09 06:09:00,70.9,68.1,29.66,SSE,157,0.0,-999.0,91,-99.99,,,0.00,Acu-Link.com,2013-08-09 10:09:00,
2013-08-09 06:24:00,70.9,68.1,29.65,ESE,112,0.0,-999.0,91,-99.99,,,0.00,Acu-Link.com,2013-08-09 10:24:00,
2013-08-09 06:40:00,70.9,68.1,29.65,South,180,0.0,-999.0,91,-99.99,,,0.00,Acu-Link.com,2013-08-09 10:40:00,
2013-08-09 06:55:00,70.9,68.1,29.65,NE,45,0.0,-999.0,91,-99.99,,,0.00,Acu-Link.com,2013-08-09 10:55:00,
2013-08-09 07:10:00,71.2,68.8,29.65,SE,135,0.0,-999.0,92,-99.99,,,0.00,Acu-Link.com,2013-08-09 11:10:00,
2013-08-09 07:25:00,71.4,68.9,29.65,West,270,0.0,-999.0,92,-99.99,,,0.00,Acu-Link.com,2013-08-09 11:25:00,
2013-08-09 07:40:00,71.6,69.1,29.65,SSE,157,0.0,-999.0,92,-99.99,,,0.00,Acu-Link.com,2013-08-09 11:40:00,
2013-08-09 07:55:00,72.0,69.5,29.65,WSW,247,0.0,-999.0,92,-99.99,,,0.00,Acu-Link.com,2013-08-09 11:55:00,
2013-08-09 08:10:00,72.1,69.6,29.65,South,180,0.0,-999.0,92,-99.99,,,0.00,Acu-Link.com,2013-08-09 12:10:00,
2013-08-09 08:25:00,72.7,69.9,29.65,SE,135,0.0,-999.0,91,-99.99,,,0.00,Acu-Link.com,2013-08-09 12:25:00,
2013-08-09 08:40:00,73.2,70.1,29.65,NE,45,0.0,-999.0,90,-99.99,,,0.00,Acu-Link.com,2013-08-09 12:40:00,
2013-08-09 08:56:00,73.8,70.3,29.65,SE,135,0.0,-999.0,89,-99.99,,,0.00,Acu-Link.com,2013-08-09 12:56:00,
2013-08-09 09:11:00,74.7,70.9,29.65,SE,135,2.2,-999.0,88,-99.99,,,0.00,Acu-Link.com,2013-08-09 13:11:00,
2013-08-09 09:26:00,75.4,70.6,29.65,SE,135,2.2,-999.0,85,-99.99,,,0.00,Acu-Link.com,2013-08-09 13:26:00,
2013-08-09 09:41:00,76.3,70.4,29.65,South,180,3.2,-999.0,82,-99.99,,,0.00,Acu-Link.com,2013-08-09 13:41:00,
2013-08-09 09:56:00,77.0,70.0,29.65,SE,135,2.2,-999.0,79,-99.99,,,0.00,Acu-Link.com,2013-08-09 13:56:00,
2013-08-09 10:11:00,76.6,70.0,29.65,South,180,2.2,-999.0,80,-99.99,,,0.00,Acu-Link.com,2013-08-09 14:11:00,
2013-08-09 10:26:00,76.6,70.3,29.66,SSE,157,0.0,-999.0,81,-99.99,,,0.00,Acu-Link.com,2013-08-09 14:26:00,
2013-08-09 10:41:00,76.6,70.3,29.66,South,180,1.1,-999.0,81,-99.99,,,0.00,Acu-Link.com,2013-08-09 14:41:00,
2013-08-09 10:56:00,76.3,70.7,29.66,ESE,112,0.0,-999.0,83,-99.99,,,0.00,Acu-Link.com,2013-08-09 14:56:00,
2013-08-09 11:12:00,76.1,70.9,29.65,ESE,112,0.0,-999.0,84,-99.99,,,0.00,Acu-Link.com,2013-08-09 15:12:00,
2013-08-09 11:27:00,76.3,71.4,29.65,SE,135,0.0,-999.0,85,-99.99,,,0.00,Acu-Link.com,2013-08-09 15:27:00,
2013-08-09 11:42:00,77.0,72.1,29.64,ESE,112,0.0,-999.0,85,-99.99,,,0.00,Acu-Link.com,2013-08-09 15:42:00,
2013-08-09 11:57:00,77.4,71.8,29.64,ESE,112,0.0,-999.0,83,-99.99,,,0.00,Acu-Link.com,2013-08-09 15:57:00,
2013-08-09 12:12:00,78.3,72.0,29.64,East,90,0.0,-999.0,81,-99.99,,,0.00,Acu-Link.com,2013-08-09 16:12:00,
2013-08-09 12:27:00,78.3,71.6,29.64,ESE,112,0.0,-999.0,80,-99.99,,,0.00,Acu-Link.com,2013-08-09 16:27:00,
2013-08-09 12:42:00,78.4,72.4,29.63,SE,135,0.0,-999.0,82,-99.99,,,0.00,Acu-Link.com,2013-08-09 16:42:00,
2013-08-09 12:57:00,78.3,72.3,29.63,SE,135,0.0,-999.0,82,-99.99,,,0.00,Acu-Link.com,2013-08-09 16:57:00,
2013-08-09 13:12:00,78.3,72.7,29.62,SSE,157,1.7,-999.0,83,-99.99,,,0.00,Acu-Link.com,2013-08-09 17:12:00,
2013-08-09 13:28:00,77.9,72.3,29.63,SSE,157,1.1,-999.0,83,-99.99,,,0.00,Acu-Link.com,2013-08-09 17:28:00,
2013-08-09 13:43:00,78.1,72.9,29.62,SSE,157,0.0,-999.0,84,-99.99,,,0.00,Acu-Link.com,2013-08-09 17:43:00,
2013-08-09 13:58:00,78.4,73.2,29.62,ENE,67,0.0,-999.0,84,-99.99,,,0.00,Acu-Link.com,2013-08-09 17:58:00,
2013-08-09 14:13:00,78.8,73.2,29.62,SSE,157,0.0,-999.0,83,-99.99,,,0.00,Acu-Link.com,2013-08-09 18:13:00,
2013-08-09 14:28:00,78.6,72.6,29.62,SSE,157,2.2,-999.0,82,-99.99,,,0.00,Acu-Link.com,2013-08-09 18:28:00,
2013-08-09 14:43:00,79.2,71.7,29.62,NNE,22,0.0,-999.0,78,-99.99,,,0.00,Acu-Link.com,2013-08-09 18:43:00,
2013-08-09 14:58:00,78.8,72.1,29.62,South,180,0.0,-999.0,80,-99.99,,,0.00,Acu-Link.com,2013-08-09 18:58:00,
2013-08-09 15:14:00,78.8,72.5,29.62,East,90,0.0,-999.0,81,-99.99,,,0.00,Acu-Link.com,2013-08-09 19:14:00,
2013-08-09 15:29:00,80.8,73.3,29.61,East,90,3.2,-999.0,78,-99.99,,,0.00,Acu-Link.com,2013-08-09 19:29:00,
2013-08-09 15:44:00,84.0,74.4,29.61,South,180,2.2,-999.0,73,-99.99,,,0.00,Acu-Link.com,2013-08-09 19:44:00,
2013-08-09 15:59:00,84.4,74.4,29.60,SSE,157,1.1,-999.0,72,-99.99,,,0.00,Acu-Link.com,2013-08-09 19:59:00,
2013-08-09 16:14:00,84.9,74.8,29.60,NE,45,3.2,-999.0,72,-99.99,,,0.00,Acu-Link.com,2013-08-09 20:14:00,
2013-08-09 16:29:00,81.3,71.4,29.60,South,180,1.7,-999.0,72,-99.99,,,0.00,Acu-Link.com,2013-08-09 20:29:00,
2013-08-09 16:45:00,79.9,71.2,29.60,East,90,1.7,-999.0,75,-99.99,,,0.00,Acu-Link.com,2013-08-09 20:45:00,
2013-08-09 17:00:00,80.8,72.1,29.60,SSE,157,3.2,-999.0,75,-99.99,,,0.00,Acu-Link.com,2013-08-09 21:00:00,
2013-08-09 17:15:00,80.4,71.7,29.60,East,90,2.2,-999.0,75,-99.99,,,0.00,Acu-Link.com,2013-08-09 21:15:00,
2013-08-09 17:30:00,80.8,72.1,29.61,ESE,112,2.2,-999.0,75,-99.99,,,0.00,Acu-Link.com,2013-08-09 21:30:00,
2013-08-09 17:45:00,81.0,72.7,29.61,ENE,67,1.1,-999.0,76,-99.99,,,0.00,Acu-Link.com,2013-08-09 21:45:00,
2013-08-09 18:00:00,83.8,73.8,29.61,SSE,157,1.7,-999.0,72,-99.99,,,0.00,Acu-Link.com,2013-08-09 22:00:00,
2013-08-09 18:15:00,83.5,73.5,29.61,SE,135,0.0,-999.0,72,-99.99,,,0.00,Acu-Link.com,2013-08-09 22:15:00,
2013-08-09 18:30:00,84.7,73.8,29.61,South,180,0.0,-999.0,70,-99.99,,,0.00,Acu-Link.com,2013-08-09 22:30:00,
2013-08-09 18:45:00,84.0,73.1,29.61,NE,45,0.0,-999.0,70,-99.99,,,0.00,Acu-Link.com,2013-08-09 22:45:00,
2013-08-09 19:01:00,85.6,74.2,29.61,East,90,0.0,-999.0,69,-99.99,,,0.00,Acu-Link.com,2013-08-09 23:01:00,
2013-08-09 19:16:00,86.0,74.2,29.62,ENE,67,0.0,-999.0,68,-99.99,,,0.00,Acu-Link.com,2013-08-09 23:16:00,
2013-08-09 19:31:00,82.4,74.4,29.63,NE,45,0.0,-999.0,77,-99.99,,,0.00,Acu-Link.com,2013-08-09 23:31:00,
2013-08-09 19:46:00,79.3,73.7,29.63,West,270,1.7,-999.0,83,-99.99,,,0.00,Acu-Link.com,2013-08-09 23:46:00,
2013-08-09 20:01:00,76.8,72.3,29.64,NE,45,0.0,-999.0,86,-99.99,,,0.00,Acu-Link.com,2013-08-10 00:01:00,
2013-08-09 20:16:00,75.4,70.6,29.65,East,90,0.0,-999.0,85,-99.99,,,0.00,Acu-Link.com,2013-08-10 00:16:00,
2013-08-09 20:31:00,73.8,69.0,29.66,East,90,0.0,-999.0,85,-99.99,,,0.00,Acu-Link.com,2013-08-10 00:31:00,
2013-08-09 20:46:00,72.5,68.4,29.66,NE,45,0.0,-999.0,87,-99.99,,,0.00,Acu-Link.com,2013-08-10 00:46:00,
2013-08-09 21:01:00,72.0,67.9,29.67,ENE,67,0.0,-999.0,87,-99.99,,,0.00,Acu-Link.com,2013-08-10 01:01:00,
2013-08-09 21:17:00,70.9,66.8,29.67,NE,45,0.0,-999.0,87,-99.99,,,0.00,Acu-Link.com,2013-08-10 01:17:00,
2013-08-09 21:32:00,70.5,66.4,29.68,ESE,112,0.0,-999.0,87,-99.99,,,0.00,Acu-Link.com,2013-08-10 01:32:00,
2013-08-09 21:47:00,70.0,66.3,29.69,NE,45,0.0,-999.0,88,-99.99,,,0.00,Acu-Link.com,2013-08-10 01:47:00,
2013-08-09 22:02:00,69.6,65.9,29.69,SSE,157,0.0,-999.0,88,-99.99,,,0.00,Acu-Link.com,2013-08-10 02:02:00,
2013-08-09 22:17:00,69.1,65.4,29.70,NE,45,0.0,-999.0,88,-99.99,,,0.00,Acu-Link.com,2013-08-10 02:17:00,
2013-08-09 22:32:00,68.7,65.3,29.71,NE,45,0.0,-999.0,89,-99.99,,,0.00,Acu-Link.com,2013-08-10 02:32:00,
2013-08-09 22:47:00,68.2,64.8,29.72,ENE,67,0.0,-999.0,89,-99.99,,,0.00,Acu-Link.com,2013-08-10 02:47:00,
2013-08-09 23:02:00,67.6,64.2,29.71,NE,45,0.0,-999.0,89,-99.99,,,0.00,Acu-Link.com,2013-08-10 03:02:00,
2013-08-09 23:17:00,67.1,63.7,29.72,NE,45,0.0,-999.0,89,-99.99,,,0.00,Acu-Link.com,2013-08-10 03:17:00,
2013-08-09 23:32:00,66.6,63.3,29.73,NNE,22,0.0,-999.0,89,-99.99,,,0.00,Acu-Link.com,2013-08-10 03:32:00,
2013-08-09 23:48:00,66.4,63.4,29.74,ESE,112,0.0,-999.0,90,-99.99,,,0.00,Acu-Link.com,2013-08-10 03:48:00,